createdAt,value
2023-05-22T00:01:08.924Z,100441.16
2023-05-22T00:03:37.069Z,100435.13
2023-05-22T00:06:04.360Z,100437.28
2023-05-22T00:08:31.328Z,100439.53
2023-05-22T00:10:58.080Z,100426.59
2023-05-22T00:13:25.031Z,100429.06
2023-05-22T00:15:51.752Z,100435.19
2023-05-22T00:18:18.420Z,100426.34
2023-05-22T00:20:46.627Z,100423.66
2023-05-22T00:23:15.735Z,100417.88
2023-05-22T00:25:42.530Z,100436.44
2023-05-22T00:28:09.407Z,100422.63
2023-05-22T00:30:37.329Z,100416.56
2023-05-22T00:33:04.365Z,100416.31
2023-05-22T00:35:31.540Z,100420.47
2023-05-22T00:37:58.310Z,100409.97
2023-05-22T00:40:24.980Z,100411.16
2023-05-22T00:42:51.637Z,100418.31
2023-05-22T00:45:18.262Z,100420.00
2023-05-22T00:47:45.154Z,100416.19
2023-05-22T00:50:12.813Z,100416.75
2023-05-22T00:52:44.026Z,100425.59
2023-05-22T00:55:12.723Z,100427.28
2023-05-22T00:57:42.930Z,100426.75
2023-05-22T01:00:13.607Z,100427.84
2023-05-22T01:02:43.842Z,100427.34
2023-05-22T01:05:19.314Z,100431.22
2023-05-22T01:07:46.645Z,100429.56
2023-05-22T01:10:13.375Z,100421.31
2023-05-22T01:12:52.261Z,100435.66
2023-05-22T01:15:29.562Z,100430.72
2023-05-22T01:18:25.235Z,100432.38
2023-05-22T01:21:06.121Z,100421.88
2023-05-22T01:23:49.822Z,100418.81
2023-05-22T01:26:31.086Z,100416.13
2023-05-22T01:29:28.748Z,100418.56
2023-05-22T01:31:58.192Z,100415.56
2023-05-22T01:34:26.880Z,100415.88
2023-05-22T01:36:55.694Z,100420.31
2023-05-22T01:39:25.665Z,100424.16
2023-05-22T01:41:52.860Z,100423.91
2023-05-22T01:44:19.805Z,100424.19
2023-05-22T01:46:46.840Z,100422.53
2023-05-22T01:49:13.502Z,100423.34
2023-05-22T01:51:53.529Z,100420.59
2023-05-22T01:54:42.488Z,100429.22
2023-05-22T01:57:19.284Z,100420.38
2023-05-22T01:59:50.003Z,100418.22
2023-05-22T02:02:19.661Z,100418.72
2023-05-22T02:04:52.095Z,100413.25
2023-05-22T02:07:22.433Z,100423.75
2023-05-22T02:09:51.687Z,100426.25
2023-05-22T02:12:21.681Z,100411.63
2023-05-22T02:14:49.364Z,100414.13
2023-05-22T02:17:18.529Z,100417.72
2023-05-22T02:19:45.467Z,100419.66
2023-05-22T02:22:15.441Z,100425.47
2023-05-22T02:24:44.584Z,100418.88
2023-05-22T02:27:13.012Z,100419.13
2023-05-22T02:29:40.108Z,100417.78
2023-05-22T02:32:07.058Z,100415.03
2023-05-22T02:34:33.976Z,100414.47
2023-05-22T02:37:03.985Z,100416.41
2023-05-22T02:39:31.099Z,100423.88
2023-05-22T02:41:57.839Z,100415.88
2023-05-22T02:44:24.719Z,100411.50
2023-05-22T02:46:52.850Z,100404.91
2023-05-22T02:49:19.870Z,100412.91
2023-05-22T02:51:48.068Z,100401.34
2023-05-22T02:54:16.275Z,100403.59
2023-05-22T02:56:43.752Z,100395.88
2023-05-22T02:59:10.551Z,100399.44
2023-05-22T03:01:39.048Z,100405.84
2023-05-22T03:04:06.893Z,100408.34
2023-05-22T03:06:35.740Z,100397.56
2023-05-22T03:09:04.448Z,100393.19
2023-05-22T03:11:32.041Z,100395.94
2023-05-22T03:13:58.796Z,100405.91
2023-05-22T03:16:26.053Z,100400.94
2023-05-22T03:19:11.281Z,100393.75
2023-05-22T03:21:39.274Z,100392.66
2023-05-22T03:24:06.795Z,100386.59
2023-05-22T03:26:34.006Z,100382.75
2023-05-22T03:29:00.823Z,100384.66
2023-05-22T03:31:29.312Z,100391.56
2023-05-22T03:33:56.089Z,100390.50
2023-05-22T03:36:24.541Z,100392.13
2023-05-22T03:38:51.969Z,100393.78
2023-05-22T03:41:18.784Z,100394.34
2023-05-22T03:43:46.978Z,100394.09
2023-05-22T03:46:14.082Z,100392.47
2023-05-22T03:48:40.740Z,100407.59
2023-05-22T03:51:07.405Z,100396.31
2023-05-22T03:53:34.125Z,100398.53
2023-05-22T03:56:00.817Z,100393.81
2023-05-22T03:58:27.657Z,100393.81
2023-05-22T04:00:55.685Z,100403.78
2023-05-22T04:03:22.876Z,100396.59
2023-05-22T04:05:49.727Z,100402.13
2023-05-22T04:08:16.637Z,100405.44
2023-05-22T04:10:46.784Z,100405.16
2023-05-22T04:13:17.147Z,100398.28
2023-05-22T04:15:46.989Z,100409.28
2023-05-22T04:18:14.476Z,100406.56
2023-05-22T04:20:41.955Z,100418.09
2023-05-22T04:23:08.814Z,100425.84
2023-05-22T04:25:36.642Z,100418.38
2023-05-22T04:28:04.342Z,100420.59
2023-05-22T04:30:34.610Z,100417.56
2023-05-22T04:33:02.066Z,100421.97
2023-05-22T04:35:29.770Z,100428.56
2023-05-22T04:37:57.374Z,100434.63
2023-05-22T04:40:24.240Z,100424.72
2023-05-22T04:42:54.448Z,100433.25
2023-05-22T04:45:25.564Z,100437.94
2023-05-22T04:47:53.374Z,100440.97
2023-05-22T04:50:20.825Z,100436.03
2023-05-22T04:52:48.598Z,100433.50
2023-05-22T04:55:15.807Z,100435.16
2023-05-22T04:57:44.815Z,100432.13
2023-05-22T05:00:17.315Z,100450.56
2023-05-22T05:02:44.280Z,100435.13
2023-05-22T05:05:12.065Z,100448.06
2023-05-22T05:07:39.981Z,100450.28
2023-05-22T05:10:07.707Z,100449.69
2023-05-22T05:12:34.527Z,100439.50
2023-05-22T05:15:01.491Z,100441.97
2023-05-22T05:17:29.071Z,100448.00
2023-05-22T05:19:55.993Z,100452.69
2023-05-22T05:22:23.124Z,100441.09
2023-05-22T05:24:49.926Z,100446.00
2023-05-22T05:27:16.687Z,100451.47
2023-05-22T05:29:43.315Z,100447.31
2023-05-22T05:32:11.676Z,100458.56
2023-05-22T05:34:38.459Z,100456.88
2023-05-22T05:37:05.467Z,100457.38
2023-05-22T05:39:32.169Z,100456.75
2023-05-22T05:41:58.943Z,100461.13
2023-05-22T05:44:25.717Z,100456.63
2023-05-22T05:46:52.730Z,100458.25
2023-05-22T05:49:19.978Z,100460.94
2023-05-22T05:51:46.661Z,100466.72
2023-05-22T05:54:13.714Z,100471.94
2023-05-22T05:56:40.373Z,100476.28
2023-05-22T05:59:07.433Z,100481.25
2023-05-22T06:01:35.458Z,100486.19
2023-05-22T06:04:03.592Z,100478.75
2023-05-22T06:06:36.490Z,100485.69
2023-05-22T06:09:05.709Z,100483.41
2023-05-22T06:11:33.266Z,100485.31
2023-05-22T06:14:01.154Z,100481.69
2023-05-22T06:16:28.368Z,100484.47
2023-05-22T06:18:57.278Z,100491.63
2023-05-22T06:21:24.611Z,100493.75
2023-05-22T06:23:51.779Z,100496.44
2023-05-22T06:26:18.521Z,100496.38
2023-05-22T06:28:45.281Z,100501.84
2023-05-22T06:31:11.836Z,100491.91
2023-05-22T06:33:40.851Z,100491.00
2023-05-22T06:36:09.001Z,100505.34
2023-05-22T06:38:38.101Z,100497.84
2023-05-22T06:41:05.544Z,100496.06
2023-05-22T06:43:32.489Z,100503.47
2023-05-22T06:45:59.170Z,100503.25
2023-05-22T06:48:25.782Z,100502.06
2023-05-22T06:50:52.359Z,100516.91
2023-05-22T06:53:18.996Z,100506.06
2023-05-22T06:55:45.656Z,100505.69
2023-05-22T06:58:12.279Z,100506.78
2023-05-22T07:00:39.199Z,100517.25
2023-05-22T07:03:07.025Z,100512.78
2023-05-22T07:05:33.765Z,100516.44
2023-05-22T07:08:00.415Z,100509.94
2023-05-22T07:10:27.900Z,100516.41
2023-05-22T07:12:54.815Z,100515.66
2023-05-22T07:15:21.474Z,100517.00
2023-05-22T07:17:49.507Z,100516.94
2023-05-22T07:20:16.919Z,100513.81
2023-05-22T07:22:43.491Z,100511.88
2023-05-22T07:25:10.424Z,100521.16
2023-05-22T07:27:37.015Z,100523.44
2023-05-22T07:30:04.408Z,100526.22
2023-05-22T07:32:35.313Z,100525.53
2023-05-22T07:35:05.925Z,100515.50
2023-05-22T07:37:33.599Z,100522.09
2023-05-22T07:40:01.660Z,100523.13
2023-05-22T07:42:29.532Z,100527.03
2023-05-22T07:44:57.729Z,100521.56
2023-05-22T07:47:24.579Z,100523.13
2023-05-22T07:49:52.347Z,100516.38
2023-05-22T07:52:19.432Z,100532.22
2023-05-22T07:54:48.774Z,100534.09
2023-05-22T07:57:16.819Z,100532.50
2023-05-22T07:59:45.586Z,100528.44
2023-05-22T08:02:14.486Z,100530.81
2023-05-22T08:04:44.287Z,100531.03
2023-05-22T08:07:12.915Z,100531.25
2023-05-22T08:09:47.600Z,100538.75
2023-05-22T08:12:15.753Z,100523.13
2023-05-22T08:14:45.713Z,100530.31
2023-05-22T08:17:12.646Z,100536.69
2023-05-22T08:19:43.159Z,100533.41
2023-05-22T08:22:10.958Z,100541.59
2023-05-22T08:24:38.050Z,100537.09
2023-05-22T08:27:07.466Z,100536.66
2023-05-22T08:29:36.415Z,100531.53
2023-05-22T08:32:04.523Z,100530.72
2023-05-22T08:34:33.141Z,100529.78
2023-05-22T08:37:00.971Z,100540.16
2023-05-22T08:39:29.305Z,100532.16
2023-05-22T08:41:56.532Z,100541.88
2023-05-22T08:44:25.792Z,100536.50
2023-05-22T08:46:52.766Z,100530.63
2023-05-22T08:49:21.832Z,100541.06
2023-05-22T08:51:56.296Z,100541.06
2023-05-22T08:54:28.816Z,100540.34
2023-05-22T08:56:57.322Z,100536.13
2023-05-22T08:59:25.070Z,100526.66
2023-05-22T09:01:54.010Z,100536.91
2023-05-22T09:04:23.962Z,100533.72
2023-05-22T09:06:52.280Z,100536.91
2023-05-22T09:09:19.207Z,100534.63
2023-05-22T09:11:46.285Z,100546.28
2023-05-22T09:14:16.099Z,100541.84
2023-05-22T09:16:53.024Z,100543.69
2023-05-22T09:19:21.516Z,100548.16
2023-05-22T09:21:48.322Z,100548.25
2023-05-22T09:24:15.189Z,100549.47
2023-05-22T09:26:42.230Z,100546.13
2023-05-22T09:29:12.561Z,100535.81
2023-05-22T09:31:43.831Z,100555.81
2023-05-22T09:34:14.423Z,100552.75
2023-05-22T09:36:42.832Z,100546.38
2023-05-22T09:39:09.781Z,100548.56
2023-05-22T09:41:40.468Z,100549.28
2023-05-22T09:44:14.125Z,100549.59
2023-05-22T09:46:50.082Z,100542.22
2023-05-22T09:49:17.577Z,100565.19
2023-05-22T09:51:49.609Z,100547.94
2023-05-22T09:54:20.446Z,100545.97
2023-05-22T09:56:59.068Z,100555.81
2023-05-22T09:59:30.533Z,100555.53
2023-05-22T10:01:58.608Z,100551.53
2023-05-22T10:04:33.270Z,100551.34
2023-05-22T10:07:04.386Z,100556.50
2023-05-22T10:09:40.988Z,100553.59
2023-05-22T10:12:15.852Z,100557.25
2023-05-22T10:14:44.158Z,100559.75
2023-05-22T10:17:16.838Z,100547.75
2023-05-22T10:19:50.915Z,100571.38
2023-05-22T10:22:27.457Z,100564.97
2023-05-22T10:25:05.150Z,100569.06
2023-05-22T10:27:33.430Z,100551.16
2023-05-22T10:30:29.334Z,100559.78
2023-05-22T10:33:20.347Z,100569.66
2023-05-22T10:36:04.819Z,100562.13
2023-05-22T10:39:12.261Z,100564.81
2023-05-22T10:41:40.620Z,100548.44
2023-05-22T10:44:14.483Z,100558.63
2023-05-22T10:47:14.104Z,100546.00
2023-05-22T10:49:47.436Z,100550.09
2023-05-22T10:52:42.954Z,100553.03
2023-05-22T10:55:18.316Z,100556.47
2023-05-22T10:57:52.542Z,100556.31
2023-05-22T11:00:27.827Z,100544.16
2023-05-22T11:03:17.079Z,100541.06
2023-05-22T11:05:53.477Z,100543.03
2023-05-22T11:08:27.555Z,100553.34
2023-05-22T11:11:01.388Z,100539.22
2023-05-22T11:13:29.471Z,100541.84
2023-05-22T11:15:58.437Z,100540.09
2023-05-22T11:18:31.698Z,100544.34
2023-05-22T11:21:00.071Z,100530.41
2023-05-22T11:23:30.878Z,100538.44
2023-05-22T11:26:23.254Z,100542.22
2023-05-22T11:28:53.865Z,100532.38
2023-05-22T11:31:24.374Z,100529.38
2023-05-22T11:33:58.703Z,100537.50
2023-05-22T11:36:27.886Z,100537.16
2023-05-22T11:39:01.556Z,100528.25
2023-05-22T11:41:34.065Z,100531.22
2023-05-22T11:44:02.549Z,100522.91
2023-05-22T11:46:30.813Z,100530.28
2023-05-22T11:48:59.181Z,100530.47
2023-05-22T11:51:29.228Z,100517.34
2023-05-22T11:53:57.379Z,100515.91
2023-05-22T11:56:27.164Z,100514.56
2023-05-22T11:58:53.875Z,100507.72
2023-05-22T12:01:22.087Z,100512.94
2023-05-22T12:03:55.635Z,100502.03
2023-05-22T12:06:22.609Z,100509.03
2023-05-22T12:08:51.161Z,100514.75
2023-05-22T12:11:18.101Z,100517.19
2023-05-22T12:13:45.651Z,100511.06
2023-05-22T12:16:20.249Z,100508.34
2023-05-22T12:18:49.186Z,100517.44
2023-05-22T12:21:20.302Z,100511.59
2023-05-22T12:23:51.227Z,100513.91
2023-05-22T12:26:19.570Z,100515.41
2023-05-22T12:28:52.223Z,100508.66
2023-05-22T12:31:23.383Z,100515.81
2023-05-22T12:33:56.064Z,100506.13
2023-05-22T12:36:46.653Z,100517.56
2023-05-22T12:39:18.701Z,100493.78
2023-05-22T12:41:53.342Z,100490.97
2023-05-22T12:44:26.554Z,100494.84
2023-05-22T12:46:56.310Z,100490.00
2023-05-22T12:49:23.970Z,100499.44
2023-05-22T12:51:52.158Z,100486.72
2023-05-22T12:54:20.401Z,100479.53
2023-05-22T12:56:47.285Z,100472.69
2023-05-22T12:59:14.002Z,100487.91
2023-05-22T13:01:40.836Z,100488.47
2023-05-22T13:04:11.321Z,100482.25
2023-05-22T13:06:39.551Z,100477.63
2023-05-22T13:09:07.488Z,100479.38
2023-05-22T13:11:36.939Z,100493.91
2023-05-22T13:14:03.764Z,100491.66
2023-05-22T13:16:31.614Z,100495.69
2023-05-22T13:18:58.294Z,100497.81
2023-05-22T13:21:26.635Z,100496.78
2023-05-22T13:23:53.750Z,100497.84
2023-05-22T13:26:21.359Z,100498.91
2023-05-22T13:28:48.044Z,100504.88
2023-05-22T13:31:14.762Z,100491.59
2023-05-22T13:33:42.757Z,100483.66
2023-05-22T13:36:09.562Z,100495.44
2023-05-22T13:38:36.537Z,100492.75
2023-05-22T13:41:03.339Z,100504.44
2023-05-22T13:43:30.004Z,100503.28
2023-05-22T13:45:56.923Z,100500.56
2023-05-22T13:48:23.737Z,100499.50
2023-05-22T13:50:53.479Z,100494.00
2023-05-22T13:53:20.074Z,100512.34
2023-05-22T13:55:46.784Z,100505.75
2023-05-22T13:58:13.553Z,100506.72
2023-05-22T14:00:40.134Z,100498.56
2023-05-22T14:03:06.924Z,100505.00
2023-05-22T14:05:34.779Z,100511.31
2023-05-22T14:08:01.425Z,100508.88
2023-05-22T14:10:29.397Z,100515.63
2023-05-22T14:12:58.048Z,100513.88
2023-05-22T14:15:24.762Z,100498.59
2023-05-22T14:17:53.851Z,100497.66
2023-05-22T14:23:05.345Z,100497.66
2023-05-22T14:25:39.825Z,100507.94
2023-05-22T14:28:06.715Z,100500.72
2023-05-22T14:30:34.692Z,100509.81
2023-05-22T14:33:01.779Z,100493.09
2023-05-22T14:35:29.840Z,100495.06
2023-05-22T14:37:56.516Z,100495.91
2023-05-22T14:40:23.322Z,100494.50
2023-05-22T14:42:51.318Z,100497.44
2023-05-22T14:45:20.364Z,100487.38
2023-05-22T14:47:50.028Z,100504.84
2023-05-22T14:50:20.361Z,100489.94
2023-05-22T14:52:49.052Z,100498.81
2023-05-22T14:55:16.753Z,100501.13
2023-05-22T14:57:45.084Z,100482.44
2023-05-22T15:00:12.651Z,100481.06
2023-05-22T15:02:39.735Z,100486.66
2023-05-22T15:05:07.394Z,100477.06
2023-05-22T15:10:05.424Z,100488.47
2023-05-22T15:12:32.681Z,100498.31
2023-05-22T15:14:59.335Z,100494.75
2023-05-22T15:17:26.161Z,100496.09
2023-05-22T15:19:52.860Z,100493.28
2023-05-22T15:22:20.224Z,100489.34
2023-05-22T15:24:48.347Z,100486.22
2023-05-22T15:27:15.166Z,100485.44
2023-05-22T15:29:43.348Z,100472.03
2023-05-22T15:32:10.193Z,100481.19
2023-05-22T15:34:37.009Z,100476.91
2023-05-22T15:37:03.669Z,100457.31
2023-05-22T15:39:30.610Z,100460.28
2023-05-22T15:42:06.477Z,100454.31
2023-05-22T15:44:33.890Z,100443.13
2023-05-22T15:47:03.274Z,100450.00
2023-05-22T15:49:31.233Z,100444.81
2023-05-22T15:52:01.045Z,100451.50
2023-05-22T15:54:27.723Z,100454.41
2023-05-22T15:56:54.412Z,100446.25
2023-05-22T15:59:22.160Z,100435.47
2023-05-22T16:01:48.916Z,100450.59
2023-05-22T16:04:17.081Z,100451.56
2023-05-22T16:06:43.960Z,100450.75
2023-05-22T16:09:13.593Z,100449.53
2023-05-22T16:11:44.096Z,100451.84
2023-05-22T16:14:12.348Z,100455.69
2023-05-22T16:16:44.164Z,100459.56
2023-05-22T16:19:17.725Z,100463.41
2023-05-22T16:21:49.854Z,100473.94
2023-05-22T16:24:19.586Z,100479.72
2023-05-22T16:26:53.861Z,100463.09
2023-05-22T16:29:22.270Z,100478.22
2023-05-22T16:31:53.481Z,100471.97
2023-05-22T16:34:21.676Z,100471.47
2023-05-22T16:36:51.388Z,100483.69
2023-05-22T16:39:20.792Z,100464.72
2023-05-22T16:41:48.781Z,100468.16
2023-05-22T16:44:18.530Z,100482.78
2023-05-22T16:46:53.565Z,100481.50
2023-05-22T16:49:21.061Z,100478.06
2023-05-22T16:51:47.728Z,100488.25
2023-05-22T16:54:14.303Z,100489.72
2023-05-22T16:56:40.944Z,100488.91
2023-05-22T16:59:07.658Z,100490.41
2023-05-22T17:01:34.334Z,100488.44
2023-05-22T17:04:00.986Z,100491.56
2023-05-22T17:06:27.970Z,100487.44
2023-05-22T17:08:54.568Z,100493.66
2023-05-22T17:11:21.176Z,100496.47
2023-05-22T17:13:47.900Z,100496.44
2023-05-22T17:16:14.614Z,100499.25
2023-05-22T17:18:41.407Z,100500.38
2023-05-22T17:21:09.375Z,100494.47
2023-05-22T17:23:37.418Z,100505.16
2023-05-22T17:26:04.673Z,100500.88
2023-05-22T17:28:31.676Z,100515.97
2023-05-22T17:30:58.332Z,100516.94
2023-05-22T17:33:25.469Z,100521.84
2023-05-22T17:35:52.820Z,100515.44
2023-05-22T17:38:19.489Z,100524.78
2023-05-22T17:40:46.513Z,100522.16
2023-05-22T17:43:13.846Z,100530.66
2023-05-22T17:45:40.795Z,100529.94
2023-05-22T17:48:08.003Z,100532.72
2023-05-22T17:50:34.852Z,100546.50
2023-05-22T17:53:01.577Z,100533.50
2023-05-22T17:55:28.329Z,100528.72
2023-05-22T17:57:55.068Z,100540.97
2023-05-22T18:00:21.817Z,100534.06
2023-05-22T18:02:50.782Z,100539.63
2023-05-22T18:05:17.576Z,100539.94
2023-05-22T18:07:44.163Z,100544.84
2023-05-22T18:10:11.242Z,100533.34
2023-05-22T18:15:09.685Z,100530.69
2023-05-22T18:17:36.440Z,100533.94
2023-05-22T18:20:07.688Z,100533.25
2023-05-22T18:22:35.923Z,100528.31
2023-05-22T18:25:03.185Z,100523.50
2023-05-22T18:27:29.941Z,100547.91
2023-05-22T18:29:56.745Z,100529.31
2023-05-22T18:32:23.455Z,100533.03
2023-05-22T18:34:54.863Z,100546.13
2023-05-22T18:37:21.975Z,100546.28
2023-05-22T18:39:51.255Z,100547.63
2023-05-22T18:45:01.690Z,100543.47
2023-05-22T18:47:28.403Z,100549.16
2023-05-22T18:49:57.217Z,100563.56
2023-05-22T18:52:26.432Z,100558.28
2023-05-22T18:54:52.987Z,100563.66
2023-05-22T18:57:22.553Z,100556.38
2023-05-22T18:59:49.662Z,100570.06
2023-05-22T19:02:17.106Z,100566.91
2023-05-22T19:04:47.155Z,100580.91
2023-05-22T19:07:14.016Z,100578.25
2023-05-22T19:09:40.712Z,100581.63
2023-05-22T19:12:07.422Z,100585.41
2023-05-22T19:14:34.032Z,100593.06
2023-05-22T19:17:00.716Z,100588.22
2023-05-22T19:19:27.782Z,100599.44
2023-05-22T19:21:57.323Z,100603.44
2023-05-22T19:24:23.924Z,100604.03
2023-05-22T19:26:50.621Z,100601.69
2023-05-22T19:29:20.176Z,100613.69
2023-05-22T19:31:46.869Z,100622.63
2023-05-22T19:34:13.444Z,100616.88
2023-05-22T19:36:40.001Z,100611.94
2023-05-22T19:39:06.808Z,100626.72
2023-05-22T19:41:33.408Z,100627.31
2023-05-22T19:44:20.273Z,100634.31
2023-05-22T19:46:46.984Z,100634.31
2023-05-22T19:49:13.801Z,100638.50
2023-05-22T19:51:46.007Z,100649.09
2023-05-22T19:54:16.899Z,100646.41
2023-05-22T19:56:43.453Z,100647.53
2023-05-22T19:59:09.994Z,100651.94
2023-05-22T20:01:36.590Z,100659.16
2023-05-22T20:04:03.399Z,100651.94
2023-05-22T20:06:33.557Z,100656.38
2023-05-22T20:09:01.824Z,100659.69
2023-05-22T20:11:29.588Z,100665.53
2023-05-22T20:13:56.398Z,100663.59
2023-05-22T20:16:28.421Z,100661.63
2023-05-22T20:18:56.403Z,100657.50
2023-05-22T20:21:23.042Z,100660.38
2023-05-22T20:23:49.635Z,100664.19
2023-05-22T20:26:16.268Z,100660.91
2023-05-22T20:28:45.747Z,100659.78
2023-05-22T20:31:12.319Z,100664.50
2023-05-22T20:33:38.876Z,100658.41
2023-05-22T20:36:08.764Z,100666.44
2023-05-22T20:38:35.325Z,100665.91
2023-05-22T20:41:02.722Z,100667.34
2023-05-22T20:43:30.880Z,100656.91
2023-05-22T20:45:57.642Z,100669.44
2023-05-22T20:48:24.296Z,100666.22
2023-05-22T20:50:51.058Z,100665.41
2023-05-22T20:53:18.345Z,100661.34
2023-05-22T20:55:44.995Z,100673.03
2023-05-22T20:58:14.318Z,100663.97
2023-05-22T21:00:42.217Z,100664.63
2023-05-22T21:03:08.990Z,100671.03
2023-05-22T21:05:35.884Z,100670.56
2023-05-22T21:08:02.491Z,100672.34
2023-05-22T21:10:29.096Z,100665.75
2023-05-22T21:12:59.011Z,100677.19
2023-05-22T21:15:25.653Z,100671.16
2023-05-22T21:17:52.337Z,100676.16
2023-05-22T21:20:19.013Z,100680.94
2023-05-22T21:22:48.180Z,100678.78
2023-05-22T21:25:14.828Z,100683.00
2023-05-22T21:27:41.471Z,100677.84
2023-05-22T21:30:08.682Z,100673.94
2023-05-22T21:32:35.337Z,100689.50
2023-05-22T21:35:01.989Z,100692.28
2023-05-22T21:37:28.652Z,100688.78
2023-05-22T21:39:55.218Z,100689.09
2023-05-22T21:42:22.310Z,100691.41
2023-05-22T21:44:48.932Z,100700.59
2023-05-22T21:47:15.571Z,100690.91
2023-05-22T21:49:42.235Z,100693.81
2023-05-22T21:52:08.971Z,100699.34
2023-05-22T21:54:35.676Z,100701.09
2023-05-22T21:57:03.526Z,100707.22
2023-05-22T21:59:30.269Z,100696.47
2023-05-22T22:01:57.054Z,100706.72
2023-05-22T22:04:23.773Z,100711.16
2023-05-22T22:06:50.512Z,100711.22
2023-05-22T22:09:17.233Z,100712.91
2023-05-22T22:11:43.793Z,100717.97
2023-05-22T22:14:10.420Z,100720.50
2023-05-22T22:16:37.876Z,100728.53
2023-05-22T22:19:05.120Z,100732.16
2023-05-22T22:21:33.583Z,100724.13
2023-05-22T22:27:28.783Z,100718.97
2023-05-22T22:29:55.527Z,100730.84
2023-05-22T22:32:22.165Z,100731.44
2023-05-22T22:34:53.982Z,100732.56
2023-05-22T22:37:21.799Z,100722.91
2023-05-22T22:39:48.467Z,100733.69
2023-05-22T22:42:15.080Z,100729.81
2023-05-22T22:44:41.798Z,100738.69
2023-05-22T22:47:11.271Z,100734.88
2023-05-22T22:49:39.351Z,100736.81
2023-05-22T22:52:06.020Z,100748.13
2023-05-22T22:54:32.840Z,100744.84
2023-05-22T22:56:59.444Z,100739.31
2023-05-22T22:59:26.126Z,100742.63
2023-05-22T23:01:52.817Z,100747.66
2023-05-22T23:04:19.786Z,100759.81
2023-05-22T23:06:47.843Z,100755.13
2023-05-22T23:09:14.841Z,100760.38
2023-05-22T23:11:42.741Z,100763.44
2023-05-22T23:14:10.041Z,100764.84
2023-05-22T23:16:38.127Z,100753.22
2023-05-22T23:19:05.440Z,100763.75
2023-05-22T23:21:33.672Z,100765.16
2023-05-22T23:24:01.586Z,100762.41
2023-05-22T23:26:28.573Z,100766.56
2023-05-22T23:28:55.160Z,100759.13
2023-05-22T23:31:26.316Z,100758.84
2023-05-22T23:33:53.175Z,100757.47
2023-05-22T23:36:19.820Z,100758.84
2023-05-22T23:38:47.108Z,100767.72
2023-05-22T23:41:18.841Z,100772.69
2023-05-22T23:43:46.500Z,100774.06
2023-05-22T23:46:15.968Z,100768.78
2023-05-22T23:48:42.814Z,100771.56
2023-05-22T23:51:10.117Z,100784.25
2023-05-22T23:53:37.035Z,100775.16
2023-05-22T23:56:04.481Z,100770.19
2023-05-22T23:58:32.302Z,100781.25
